Time;durP1;ratioP1;P1;durP2;ratioP2;P2;SDS_P1;SDS_P2;PMS_P1;PMS_P2;Temp;Humidity;BMP_temperature;BMP_pressure;BME280_temperature;BME280_humidity;BME280_pressure;Samples;Min_cycle;Max_cycle;Signal;HPM_P1;HPM_P2
2022/10/25 00:00:18;;;;;;;10.68;6.72;;;;;;;22.21;64.63;99085.31;2070859;28;20079;-51
2022/10/25 00:01:22;;;;;;;10.82;7.50;;;;;;;22.22;64.73;99083.44;2066955;28;20054;-52
2022/10/25 00:02:24;;;;;;;10.50;7.80;;;;;;;22.22;64.66;99084.28;2072199;28;20818;-52
2022/10/25 00:03:27;;;;;;;7.82;6.93;;;;;;;22.22;64.74;99078.03;2069151;28;20038;-52
2022/10/25 00:04:28;;;;;;;9.68;7.70;;;;;;;22.21;64.67;99079.09;2069812;28;20050;-51
2022/10/25 00:05:29;;;;;;;11.60;7.90;;;;;;;22.20;64.71;99077.41;2065961;28;21722;-46
2022/10/25 00:06:31;;;;;;;12.07;7.05;;;;;;;22.21;64.82;99079.09;2065065;28;20043;-51
2022/10/25 00:07:32;;;;;;;9.05;7.25;;;;;;;22.21;64.74;99079.09;2070619;28;20045;-51
2022/10/25 00:08:33;;;;;;;9.40;7.50;;;;;;;22.21;64.84;99081.81;2069228;28;20643;-50
2022/10/25 00:09:34;;;;;;;9.02;6.32;;;;;;;22.21;64.69;99088.03;2067028;28;20120;-49
2022/10/25 00:10:36;;;;;;;8.35;6.63;;;;;;;22.21;64.62;99079.91;2071940;28;20485;-52
2022/10/25 00:11:37;;;;;;;9.15;6.72;;;;;;;22.20;64.81;99082.81;2069084;28;20200;-51
2022/10/25 00:12:43;;;;;;;7.93;6.10;;;;;;;22.20;64.51;99083.66;2070717;28;20137;-51
2022/10/25 00:13:44;;;;;;;10.90;6.85;;;;;;;22.21;64.82;99089.91;2069269;28;20058;-48
2022/10/25 00:14:45;;;;;;;7.18;6.22;;;;;;;22.19;64.91;99092.00;2071074;28;20462;-53
2022/10/25 00:15:46;;;;;;;9.85;6.95;;;;;;;22.21;64.70;99087.22;2072504;28;20592;-53
2022/10/25 00:16:48;;;;;;;8.73;6.85;;;;;;;22.21;64.71;99087.22;2065486;28;20054;-54
2022/10/25 00:17:49;;;;;;;8.25;6.10;;;;;;;22.21;64.73;99079.09;2073743;28;20049;-54
2022/10/25 00:18:53;;;;;;;10.23;6.00;;;;;;;22.22;64.73;99078.03;2069160;28;20084;-49
2022/10/25 00:19:54;;;;;;;10.05;7.45;;;;;;;22.21;64.92;99084.50;2068922;28;20061;-49
2022/10/25 00:20:56;;;;;;;8.38;6.53;;;;;;;22.21;64.69;99085.31;2070247;28;20502;-52
2022/10/25 00:21:57;;;;;;;11.50;7.03;;;;;;;22.21;64.74;99085.31;2066069;28;20072;-53
2022/10/25 00:22:58;;;;;;;8.55;6.45;;;;;;;22.22;64.61;99083.44;2070199;28;20053;-53
2022/10/25 00:24:00;;;;;;;10.05;6.75;;;;;;;22.20;64.66;99082.81;2071165;28;20060;-50
2022/10/25 00:25:01;;;;;;;11.25;6.55;;;;;;;22.20;64.74;99085.53;2067693;28;20590;-53
2022/10/25 00:26:04;;;;;;;9.52;6.72;;;;;;;22.21;64.57;99087.22;2070977;28;21897;-53
2022/10/25 00:27:06;;;;;;;7.28;6.40;;;;;;;22.19;64.66;99086.59;2068017;28;20054;-51
2022/10/25 00:28:07;;;;;;;8.95;6.45;;;;;;;22.20;64.80;99093.63;2069740;28;20061;-50
2022/10/25 00:29:09;;;;;;;10.65;6.72;;;;;;;22.21;64.55;99085.31;2071339;28;20076;-52
2022/10/25 00:30:11;;;;;;;11.85;7.18;;;;;;;22.22;64.57;99080.75;2068299;28;20038;-51
2022/10/25 00:31:14;;;;;;;11.13;7.43;;;;;;;22.23;64.76;99077.00;2066632;28;20045;-51
2022/10/25 00:32:15;;;;;;;6.75;5.63;;;;;;;22.22;64.88;99083.44;2070004;28;20060;-52
2022/10/25 00:33:17;;;;;;;9.00;6.50;;;;;;;22.22;64.61;99075.34;2072941;28;20531;-49
2022/10/25 00:34:19;;;;;;;12.05;6.03;;;;;;;22.22;64.62;99076.16;2071383;28;20053;-49
2022/10/25 00:35:21;;;;;;;7.60;6.60;;;;;;;22.20;64.79;99075.53;2067109;28;20089;-48
2022/10/25 00:36:24;;;;;;;7.82;6.28;;;;;;;22.21;64.74;99076.41;2066529;28;20103;-48
2022/10/25 00:37:26;;;;;;;9.10;5.93;;;;;;;22.20;64.67;99078.25;2071745;28;20111;-53
2022/10/25 00:38:27;;;;;;;8.27;6.30;;;;;;;22.20;64.66;99072.03;2070196;28;20046;-53
2022/10/25 00:39:29;;;;;;;8.18;6.28;;;;;;;22.21;64.86;99079.91;2070151;28;20112;-49
2022/10/25 00:40:29;;;;;;;9.45;6.95;;;;;;;22.21;64.64;99079.09;2063366;28;20057;-51
2022/10/25 00:41:33;;;;;;;7.40;6.18;;;;;;;22.21;64.63;99077.22;2070962;28;20738;-49
2022/10/25 00:42:34;;;;;;;7.50;6.15;;;;;;;22.18;64.73;99071.44;2069508;28;20042;-50
2022/10/25 00:43:38;;;;;;;12.40;7.10;;;;;;;22.19;64.77;99073.06;2071339;28;20553;-51
2022/10/25 00:44:49;;;;;;;10.52;6.20;;;;;;;22.18;64.68;99072.25;2069058;28;20065;-49
2022/10/25 00:45:51;;;;;;;9.55;6.82;;;;;;;22.18;64.81;99071.44;2068264;28;20045;-54
2022/10/25 00:46:52;;;;;;;7.57;5.80;;;;;;;22.19;64.77;99064.97;2068566;28;20073;-53
2022/10/25 00:48:00;;;;;;;9.23;6.22;;;;;;;22.20;64.74;99061.22;2071627;28;20103;-46
2022/10/25 00:49:03;;;;;;;11.77;6.70;;;;;;;22.19;64.75;99065.78;2065290;28;20054;-49
2022/10/25 00:50:15;;;;;;;9.05;6.03;;;;;;;22.19;64.83;99071.19;2069355;28;20131;-53
2022/10/25 00:51:16;;;;;;;6.97;5.28;;;;;;;22.19;64.84;99075.78;2069429;28;20102;-54
2022/10/25 00:52:18;;;;;;;11.32;6.90;;;;;;;22.18;64.73;99068.72;2067796;28;20044;-53
2022/10/25 00:53:23;;;;;;;9.82;6.47;;;;;;;22.20;64.71;99072.03;2070618;28;20111;-49
2022/10/25 00:54:29;;;;;;;9.73;6.78;;;;;;;22.19;64.66;99067.69;2071426;28;20050;-46
2022/10/25 00:55:32;;;;;;;8.38;6.53;;;;;;;22.19;64.69;99070.38;2069839;28;20051;-53
2022/10/25 00:56:37;;;;;;;9.32;7.18;;;;;;;22.18;64.62;99072.25;2070204;28;20477;-49
2022/10/25 00:57:42;;;;;;;11.50;6.72;;;;;;;22.18;64.76;99069.56;2070487;28;20042;-49
2022/10/25 00:58:48;;;;;;;8.80;6.05;;;;;;;22.18;64.73;99072.25;2069702;28;20114;-51
2022/10/25 00:59:50;;;;;;;8.35;5.78;;;;;;;22.17;64.66;99065.16;2070583;28;20050;-48
2022/10/25 01:00:51;;;;;;;7.70;6.25;;;;;;;22.18;64.68;99074.13;2065711;28;20125;-51
2022/10/25 01:01:53;;;;;;;;;;;;;;;22.04;65.23;99066.06;2068857;28;20115;-54
2022/10/25 01:02:54;;;;;;;6.97;6.20;;;;;;;22.09;65.16;99076.19;2065089;28;19921;-50
2022/10/25 01:04:00;;;;;;;7.75;6.22;;;;;;;22.13;64.89;99069.34;2066733;28;20057;-47
2022/10/25 01:05:01;;;;;;;10.52;5.82;;;;;;;22.14;64.81;99070.16;2067260;28;20104;-54
2022/10/25 01:06:07;;;;;;;9.35;6.60;;;;;;;22.17;64.70;99075.13;2069176;28;20658;-52
2022/10/25 01:07:08;;;;;;;10.23;6.65;;;;;;;22.17;64.59;99072.44;2065642;28;20045;-52
2022/10/25 01:08:11;;;;;;;13.88;6.63;;;;;;;22.16;64.87;99071.59;2073130;28;20119;-51
2022/10/25 01:09:14;;;;;;;7.03;6.00;;;;;;;22.18;64.57;99071.44;2065033;28;20045;-51
2022/10/25 01:10:16;;;;;;;9.35;6.18;;;;;;;22.17;64.63;99075.13;2069844;28;20054;-51
2022/10/25 01:11:18;;;;;;;6.63;5.63;;;;;;;22.17;64.55;99067.03;2069131;28;20050;-49
2022/10/25 01:12:20;;;;;;;8.80;6.80;;;;;;;22.17;64.83;99067.03;2066287;28;20054;-49
2022/10/25 01:13:21;;;;;;;7.40;5.97;;;;;;;22.17;64.61;99072.44;2068738;28;20987;-49
2022/10/25 01:14:25;;;;;;;9.63;6.88;;;;;;;22.18;64.83;99066.84;2071805;28;20088;-51
2022/10/25 01:15:39;;;;;;;8.43;6.03;;;;;;;22.18;64.75;99068.72;2068036;28;20508;-48
2022/10/25 01:16:53;;;;;;;7.32;6.15;;;;;;;22.14;64.87;99072.84;2068068;28;20960;-47
2022/10/25 01:18:03;;;;;;;7.70;5.63;;;;;;;22.13;64.73;99066.63;2070231;28;20096;-51
2022/10/25 01:19:23;;;;;;;8.98;6.18;;;;;;;22.14;64.82;99062.06;2068583;28;20041;-54
2022/10/25 01:21:02;;;;;;;8.40;5.97;;;;;;;22.11;64.81;99065.19;2068738;28;20423;-47
2022/10/25 01:22:07;;;;;;;7.55;5.28;;;;;;;22.09;64.84;99055.44;2069659;28;20053;-52
2022/10/25 01:23:25;;;;;;;6.68;4.70;;;;;;;22.11;64.99;99055.22;2070407;28;20130;-53
2022/10/25 01:24:59;;;;;;;8.35;6.05;;;;;;;22.08;64.91;99042.97;2069882;28;20049;-51
2022/10/25 01:26:33;;;;;;;7.90;5.95;;;;;;;22.07;65.07;99043.19;2069825;28;20092;-49
2022/10/25 01:27:55;;;;;;;8.30;5.47;;;;;;;22.06;64.92;99046.91;2056180;28;20053;-53
2022/10/25 01:29:19;;;;;;;8.43;5.60;;;;;;;22.07;64.89;99046.72;2062250;28;20054;-54
2022/10/25 01:30:23;;;;;;;6.28;5.63;;;;;;;22.08;65.03;99042.97;2071804;28;20054;-48
2022/10/25 01:31:31;;;;;;;8.02;5.07;;;;;;;22.08;65.12;99042.97;2068781;28;20068;-52
2022/10/25 01:32:41;;;;;;;9.40;6.57;;;;;;;22.11;64.92;99046.28;2069366;28;20727;-49
2022/10/25 01:33:50;;;;;;;8.90;6.57;;;;;;;22.12;64.82;99042.53;2069838;28;20095;-53
2022/10/25 01:35:01;;;;;;;12.95;5.63;;;;;;;22.11;64.69;99043.56;2066024;28;20137;-49
2022/10/25 01:36:12;;;;;;;7.03;5.75;;;;;;;22.11;64.69;99040.88;2069900;28;20057;-54
2022/10/25 01:37:23;;;;;;;8.95;6.15;;;;;;;22.12;65.04;99047.94;2070530;28;20042;-51
2022/10/25 01:38:33;;;;;;;6.35;5.65;;;;;;;22.11;64.74;99051.69;2072468;28;21887;-49
2022/10/25 01:39:40;;;;;;;7.65;5.70;;;;;;;22.08;64.81;99042.97;2070703;28;20124;-48
2022/10/25 01:40:48;;;;;;;7.22;5.90;;;;;;;22.11;64.92;99047.09;2069353;28;20452;-48
2022/10/25 01:41:57;;;;;;;8.80;5.60;;;;;;;22.12;64.67;99042.53;2068940;28;20053;-52
2022/10/25 01:43:07;;;;;;;9.35;6.18;;;;;;;22.11;64.75;99047.09;2073247;28;20056;-50
2022/10/25 01:44:20;;;;;;;7.82;5.38;;;;;;;22.09;64.92;99049.19;2069717;28;20054;-54
2022/10/25 01:45:28;;;;;;;5.95;5.20;;;;;;;22.11;65.01;99044.41;2065861;28;20053;-52
2022/10/25 01:46:35;;;;;;;6.75;5.35;;;;;;;22.11;64.83;99052.50;2064575;28;20649;-50
2022/10/25 01:47:41;;;;;;;7.53;4.82;;;;;;;22.11;64.94;99048.97;2071644;28;20048;-53
2022/10/25 01:48:46;;;;;;;8.40;6.05;;;;;;;22.11;64.81;99049.81;2072646;28;20045;-50
2022/10/25 01:49:52;;;;;;;8.07;6.15;;;;;;;22.12;64.79;99043.38;2072688;28;20046;-52
2022/10/25 01:50:53;;;;;;;7.85;5.20;;;;;;;22.12;64.79;99045.22;2069992;28;20053;-47
2022/10/25 01:51:54;;;;;;;7.53;5.93;;;;;;;22.14;64.74;99040.44;2069152;28;20054;-51
2022/10/25 01:52:55;;;;;;;6.78;6.15;;;;;;;22.15;64.55;99036.69;2068775;28;20053;-51
2022/10/25 01:53:57;;;;;;;7.32;5.28;;;;;;;22.14;64.66;99040.44;2068410;28;20053;-47
2022/10/25 01:54:59;;;;;;;9.98;5.95;;;;;;;22.12;64.83;99032.56;2068215;28;20057;-47
2022/10/25 01:56:03;;;;;;;9.23;5.53;;;;;;;22.14;64.79;99035.03;2069444;28;20141;-50
2022/10/25 01:57:19;;;;;;;7.95;5.43;;;;;;;22.13;64.81;99038.78;2071361;28;20052;-46
2022/10/25 01:58:36;;;;;;;7.07;5.13;;;;;;;22.11;64.76;99030.06;2072269;28;20060;-50
2022/10/25 02:00:05;;;;;;;7.55;5.95;;;;;;;22.05;64.88;99031.78;2067221;28;20050;-50
2022/10/25 02:01:17;;;;;;;7.95;5.63;;;;;;;22.08;64.94;99020.53;2070891;28;20403;-48
2022/10/25 02:02:26;;;;;;;8.07;5.88;;;;;;;22.07;64.92;99022.41;2068267;28;20193;-49
2022/10/25 02:03:32;;;;;;;8.40;5.50;;;;;;;22.09;64.71;99023.03;2068558;28;20107;-49
2022/10/25 02:04:43;;;;;;;8.82;6.30;;;;;;;22.09;64.76;99017.63;2073336;28;20053;-46
2022/10/25 02:05:59;;;;;;;7.55;5.40;;;;;;;22.06;64.94;99023.47;2070157;28;20521;-46
2022/10/25 02:07:07;;;;;;;6.38;5.78;;;;;;;22.08;64.85;99018.66;2072876;28;20129;-48
2022/10/25 02:08:17;;;;;;;6.93;5.63;;;;;;;22.08;64.74;99018.66;2070789;28;20145;-49
2022/10/25 02:09:27;;;;;;;7.63;5.93;;;;;;;22.09;64.86;99014.91;2066872;28;20046;-47
2022/10/25 02:10:35;;;;;;;6.80;5.15;;;;;;;22.08;64.86;99017.81;2068717;28;20045;-46
2022/10/25 02:11:37;;;;;;;9.63;5.85;;;;;;;22.07;64.70;99014.31;2068505;28;20149;-51
2022/10/25 02:12:47;;;;;;;7.28;5.20;;;;;;;22.08;64.62;99013.25;2070583;28;20060;-48
2022/10/25 02:13:59;;;;;;;6.93;5.63;;;;;;;22.07;64.96;99010.78;2070558;28;20064;-48
2022/10/25 02:15:07;;;;;;;7.57;5.60;;;;;;;22.07;64.89;99014.31;2071366;28;20058;-48
2022/10/25 02:16:12;;;;;;;8.63;5.80;;;;;;;22.11;64.70;99016.56;2072171;28;20578;-50
2022/10/25 02:17:18;;;;;;;6.93;5.43;;;;;;;22.09;64.92;99016.78;2071392;28;20050;-47
2022/10/25 02:18:25;;;;;;;8.65;6.05;;;;;;;22.09;64.86;99017.63;2073730;28;20045;-48
2022/10/25 02:19:31;;;;;;;7.07;5.18;;;;;;;22.12;64.65;99026.31;2071867;28;20510;-49
2022/10/25 02:20:34;;;;;;;5.82;5.20;;;;;;;22.10;64.75;99018.44;2071701;28;20042;-48
2022/10/25 02:21:36;;;;;;;10.07;5.88;;;;;;;22.09;64.62;99020.31;2070416;28;20499;-50
2022/10/25 02:22:39;;;;;;;10.20;7.10;;;;;;;22.09;64.77;99017.63;2071014;28;20049;-46
2022/10/25 02:23:41;;;;;;;8.57;5.97;;;;;;;22.09;64.74;99014.06;2071652;28;20049;-52
2022/10/25 02:24:46;;;;;;;9.85;5.90;;;;;;;22.12;64.64;99015.50;2066291;28;20100;-53
2022/10/25 02:25:49;;;;;;;6.13;5.45;;;;;;;22.11;64.83;99016.56;2069570;28;20049;-48
2022/10/25 02:26:51;;;;;;;9.02;5.80;;;;;;;22.12;64.61;99015.50;2072244;28;20569;-47
2022/10/25 02:27:55;;;;;;;6.35;4.90;;;;;;;22.12;64.66;99013.66;2067887;28;20053;-50
2022/10/25 02:28:56;;;;;;;7.50;5.15;;;;;;;22.12;64.83;99007.41;2070363;28;20419;-51
2022/10/25 02:29:59;;;;;;;6.47;4.63;;;;;;;22.12;64.58;99015.50;2071528;28;20548;-51
2022/10/25 02:31:00;;;;;;;5.90;4.75;;;;;;;22.11;64.77;99009.28;2072803;28;20049;-51
2022/10/25 02:32:03;;;;;;;7.75;5.97;;;;;;;22.11;64.67;99011.16;2063772;28;20805;-50
2022/10/25 02:33:04;;;;;;;6.78;5.32;;;;;;;22.11;64.93;99008.47;2071542;28;20511;-52
2022/10/25 02:34:07;;;;;;;7.70;5.35;;;;;;;22.12;64.59;99004.69;2070763;28;20055;-51
2022/10/25 02:35:14;;;;;;;6.45;5.00;;;;;;;22.12;64.40;99015.50;2069435;28;20049;-47
2022/10/25 02:36:18;;;;;;;7.05;5.15;;;;;;;22.12;64.55;99012.81;2072222;28;20049;-53
2022/10/25 02:37:19;;;;;;;6.55;4.65;;;;;;;22.09;64.61;99017.63;2070907;28;20053;-49
2022/10/25 02:38:21;;;;;;;6.55;5.55;;;;;;;22.09;64.79;99017.63;2070907;28;20053;-51
2022/10/25 02:39:24;;;;;;;7.38;4.95;;;;;;;22.11;64.60;99019.28;2069832;28;20587;-48
2022/10/25 02:40:26;;;;;;;8.75;5.22;;;;;;;22.11;64.59;99012.00;2067913;28;20049;-52
2022/10/25 02:41:27;;;;;;;5.63;4.57;;;;;;;22.12;64.56;99015.50;2068326;28;20100;-48
2022/10/25 02:42:28;;;;;;;6.63;5.00;;;;;;;22.12;64.82;99016.38;2073998;28;20052;-51
2022/10/25 02:43:29;;;;;;;6.32;5.05;;;;;;;22.11;64.69;99012.00;2071797;28;20720;-48
2022/10/25 02:44:31;;;;;;;6.47;5.30;;;;;;;22.12;64.51;99012.81;2072600;28;20053;-47
2022/10/25 02:45:32;;;;;;;7.18;5.43;;;;;;;22.11;64.73;99020.09;2067005;28;20053;-47
2022/10/25 02:46:34;;;;;;;10.00;5.78;;;;;;;22.11;64.56;99013.88;2068876;28;20780;-48
2022/10/25 02:47:35;;;;;;;8.20;5.78;;;;;;;22.09;64.75;99017.63;2068464;28;20060;-47
2022/10/25 02:48:37;;;;;;;6.50;4.70;;;;;;;22.09;64.64;99016.78;2063844;28;20407;-48
2022/10/25 02:49:39;;;;;;;7.65;5.05;;;;;;;22.12;64.61;99015.50;2066624;28;20110;-47
2022/10/25 02:50:41;;;;;;;7.80;5.18;;;;;;;22.09;64.67;99014.06;2067837;28;20046;-49
2022/10/25 02:51:42;;;;;;;8.68;5.95;;;;;;;22.09;64.59;99014.91;2066567;28;20080;-46
2022/10/25 02:52:43;;;;;;;8.05;5.72;;;;;;;22.11;64.71;99012.00;2067543;28;20064;-51
2022/10/25 02:53:44;;;;;;;7.47;5.65;;;;;;;22.09;64.70;99017.63;2064961;28;20050;-49
2022/10/25 02:54:46;;;;;;;6.25;4.88;;;;;;;22.11;64.69;99021.97;2066090;28;21094;-47
2022/10/25 02:55:47;;;;;;;6.20;5.45;;;;;;;22.11;64.48;99025.50;2065527;28;20055;-50
2022/10/25 02:56:51;;;;;;;8.13;6.00;;;;;;;22.09;64.70;99019.47;2063712;28;20076;-48
2022/10/25 02:57:52;;;;;;;6.28;5.03;;;;;;;22.09;64.69;99028.44;2068689;28;20569;-48
2022/10/25 02:58:55;;;;;;;5.10;4.63;;;;;;;22.09;64.69;99022.16;2069637;28;20069;-48
2022/10/25 02:59:57;;;;;;;5.95;5.00;;;;;;;22.09;64.53;99027.56;2072630;28;20475;-49
2022/10/25 03:00:59;;;;;;;5.93;5.05;;;;;;;22.08;64.65;99025.94;2071056;28;20066;-49
2022/10/25 03:02:00;;;;;;;5.95;5.20;;;;;;;22.08;64.67;99036.72;2069801;28;20141;-51
2022/10/25 03:03:01;;;;;;;8.88;5.60;;;;;;;22.08;64.77;99034.03;2069807;28;20061;-52
2022/10/25 03:04:03;;;;;;;7.45;5.03;;;;;;;22.08;64.88;99029.44;2072885;28;20058;-51
2022/10/25 03:05:06;;;;;;;6.30;4.55;;;;;;;22.07;64.79;99033.22;2069350;28;20136;-50
2022/10/25 03:06:10;;;;;;;7.15;4.30;;;;;;;22.08;64.69;99034.84;2070768;28;20076;-48
2022/10/25 03:07:10;;;;;;;9.10;4.93;;;;;;;22.08;64.66;99026.75;2071043;28;20582;-47
2022/10/25 03:08:12;;;;;;;5.32;4.82;;;;;;;22.09;64.84;99030.28;2071704;28;20049;-49
2022/10/25 03:09:13;;;;;;;6.10;5.38;;;;;;;22.09;64.88;99031.13;2071318;28;20083;-49
2022/10/25 03:10:15;;;;;;;6.57;5.28;;;;;;;22.11;64.77;99038.19;2068047;28;20633;-48
2022/10/25 03:11:16;;;;;;;7.07;4.88;;;;;;;22.09;64.67;99035.69;2070035;28;20057;-48
2022/10/25 03:12:18;;;;;;;7.97;5.65;;;;;;;22.11;64.65;99032.78;2067594;28;20052;-48
2022/10/25 03:13:18;;;;;;;5.72;4.18;;;;;;;22.11;64.61;99024.66;2072028;28;20767;-46
2022/10/25 03:14:20;;;;;;;6.30;5.70;;;;;;;22.09;64.62;99024.88;2070899;28;20133;-48
2022/10/25 03:15:21;;;;;;;6.63;4.55;;;;;;;22.09;64.86;99039.22;2068959;28;20092;-50
2022/10/25 03:16:23;;;;;;;10.98;5.55;;;;;;;22.08;64.72;99025.94;2071352;28;20092;-49
2022/10/25 03:17:24;;;;;;;4.55;3.97;;;;;;;22.09;64.63;99031.13;2069778;28;20557;-50
2022/10/25 03:18:25;;;;;;;7.50;5.18;;;;;;;22.07;64.63;99030.50;2073220;28;20137;-47
2022/10/25 03:19:26;;;;;;;8.02;4.93;;;;;;;22.08;64.78;99034.03;2071523;28;20057;-50
2022/10/25 03:20:29;;;;;;;5.35;4.65;;;;;;;22.09;64.71;99036.53;2066474;28;20118;-49
2022/10/25 03:21:30;;;;;;;7.60;5.25;;;;;;;22.07;64.56;99029.69;2066085;28;20100;-48
2022/10/25 03:22:32;;;;;;;6.00;4.60;;;;;;;22.08;64.46;99031.34;2068213;28;20467;-50
2022/10/25 03:23:33;;;;;;;6.32;5.30;;;;;;;22.08;64.67;99037.56;2061623;28;20045;-47
2022/10/25 03:24:35;;;;;;;7.97;4.28;;;;;;;22.08;64.78;99034.03;2065325;28;20743;-50
2022/10/25 03:25:36;;;;;;;7.28;4.82;;;;;;;22.07;64.60;99033.22;2064960;28;20077;-46
2022/10/25 03:26:37;;;;;;;6.03;4.30;;;;;;;22.07;64.63;99032.38;2068156;28;20114;-49
2022/10/25 03:27:38;;;;;;;10.88;5.60;;;;;;;22.07;64.63;99035.91;2066260;28;20061;-46
2022/10/25 03:28:40;;;;;;;6.20;5.07;;;;;;;22.06;64.58;99028.88;2066548;28;20052;-49
2022/10/25 03:29:41;;;;;;;7.97;4.70;;;;;;;22.07;64.78;99040.50;2066442;28;20091;-47
2022/10/25 03:30:43;;;;;;;5.25;4.22;;;;;;;22.07;64.79;99038.63;2064126;28;20057;-48
2022/10/25 03:31:44;;;;;;;6.20;4.97;;;;;;;22.07;64.82;99035.09;2062417;28;22178;-48
2022/10/25 03:32:45;;;;;;;;;;;;;;;21.97;65.07;99029.31;2069626;28;20061;-49
2022/10/25 03:33:46;;;;;;;4.97;4.45;;;;;;;21.98;65.13;99031.81;2065779;28;19929;-51
2022/10/25 03:34:48;;;;;;;6.20;5.20;;;;;;;22.02;64.94;99032.22;2067370;28;20076;-46
2022/10/25 03:35:51;;;;;;;5.45;4.60;;;;;;;22.03;64.75;99028.44;2066591;28;21811;-47
2022/10/25 03:36:53;;;;;;;8.68;4.70;;;;;;;22.04;64.68;99030.94;2067990;28;20137;-49
2022/10/25 03:37:53;;;;;;;6.75;5.00;;;;;;;22.04;64.85;99035.53;2065559;28;20135;-48
2022/10/25 03:38:55;;;;;;;7.40;5.07;;;;;;;22.05;64.62;99031.78;2068832;28;20151;-48
2022/10/25 03:39:56;;;;;;;6.75;6.00;;;;;;;22.07;64.85;99032.38;2062302;28;20053;-48
2022/10/25 03:40:58;;;;;;;5.95;4.63;;;;;;;22.04;64.74;99028.25;2066889;28;20053;-47
2022/10/25 03:41:58;;;;;;;6.00;4.05;;;;;;;22.06;64.65;99028.88;2067175;28;20092;-48
2022/10/25 03:43:00;;;;;;;5.63;5.07;;;;;;;22.05;64.73;99032.59;2068634;28;20057;-49
2022/10/25 03:44:01;;;;;;;5.57;4.90;;;;;;;22.07;64.70;99029.69;2070545;28;20095;-48
2022/10/25 03:45:03;;;;;;;6.75;5.03;;;;;;;22.05;64.72;99024.50;2071067;28;20096;-52
2022/10/25 03:46:04;;;;;;;5.90;4.47;;;;;;;22.04;64.95;99028.25;2070896;28;20587;-51
2022/10/25 03:47:06;;;;;;;7.28;5.22;;;;;;;22.04;64.88;99030.13;2069853;28;20053;-50
2022/10/25 03:48:07;;;;;;;5.93;4.55;;;;;;;22.06;64.69;99028.88;2071029;28;20054;-51
2022/10/25 03:49:09;;;;;;;6.03;5.43;;;;;;;22.07;64.69;99032.38;2069906;28;20960;-49
2022/10/25 03:50:10;;;;;;;5.80;4.60;;;;;;;22.04;64.73;99030.13;2072358;28;20057;-46
2022/10/25 03:51:13;;;;;;;6.68;4.80;;;;;;;22.07;64.77;99029.69;2069268;28;20042;-48
2022/10/25 03:52:14;;;;;;;8.55;5.10;;;;;;;22.03;64.72;99031.97;2068840;28;20155;-51
2022/10/25 03:53:15;;;;;;;6.57;4.75;;;;;;;22.04;64.74;99030.94;2073145;28;20171;-49
2022/10/25 03:54:16;;;;;;;6.32;5.00;;;;;;;22.04;64.76;99035.53;2073113;28;20061;-52
2022/10/25 03:55:18;;;;;;;5.07;4.57;;;;;;;22.04;64.72;99033.66;2072000;28;20748;-48
2022/10/25 03:56:19;;;;;;;6.32;4.40;;;;;;;22.05;64.54;99032.59;2071718;28;20604;-47
2022/10/25 03:57:21;;;;;;;4.78;4.22;;;;;;;22.07;64.85;99037.78;2070154;28;20057;-49
2022/10/25 03:58:21;;;;;;;7.63;5.13;;;;;;;22.04;64.76;99028.25;2070969;28;20057;-48
2022/10/25 03:59:23;;;;;;;8.95;4.57;;;;;;;22.05;64.70;99027.19;2069446;28;20750;-50
2022/10/25 04:00:25;;;;;;;5.25;4.75;;;;;;;22.05;64.58;99032.59;2068898;28;20049;-50
2022/10/25 04:01:26;;;;;;;4.82;4.32;;;;;;;22.04;64.68;99033.66;2068493;28;21835;-48
2022/10/25 04:02:27;;;;;;;5.97;4.47;;;;;;;22.04;64.73;99036.34;2066545;28;20061;-46
2022/10/25 04:03:29;;;;;;;6.15;4.35;;;;;;;22.05;64.74;99031.78;2069806;28;20088;-50
2022/10/25 04:04:30;;;;;;;6.00;4.82;;;;;;;22.03;64.91;99029.28;2066842;28;20640;-51
2022/10/25 04:05:32;;;;;;;7.28;5.22;;;;;;;22.05;64.74;99034.47;2067555;28;20075;-50
2022/10/25 04:06:35;;;;;;;6.95;5.30;;;;;;;22.05;64.73;99032.59;2066263;28;20046;-51
2022/10/25 04:07:36;;;;;;;5.18;4.70;;;;;;;22.04;64.74;99030.94;2068977;28;20149;-49
2022/10/25 04:08:37;;;;;;;5.85;4.55;;;;;;;22.03;64.81;99029.28;2067196;28;20720;-48
2022/10/25 04:09:39;;;;;;;5.57;4.10;;;;;;;22.02;64.82;99035.72;2068163;28;20092;-50
2022/10/25 04:10:41;;;;;;;4.72;4.30;;;;;;;22.02;64.75;99033.03;2069030;28;20041;-49
2022/10/25 04:11:42;;;;;;;9.32;5.43;;;;;;;22.03;64.60;99037.38;2071603;28;20589;-48
2022/10/25 04:12:44;;;;;;;6.35;4.65;;;;;;;22.03;64.91;99042.78;2071240;28;20049;-50
2022/10/25 04:13:46;;;;;;;7.90;5.03;;;;;;;22.03;64.88;99033.84;2067711;28;20049;-48
2022/10/25 04:14:47;;;;;;;6.10;5.10;;;;;;;22.01;64.80;99031.38;2069396;28;20054;-48
2022/10/25 04:15:49;;;;;;;7.13;5.35;;;;;;;22.03;64.75;99033.84;2067257;28;20057;-50
2022/10/25 04:16:49;;;;;;;6.65;4.40;;;;;;;22.01;64.91;99036.78;2066306;28;20115;-46
2022/10/25 04:17:52;;;;;;;5.88;4.53;;;;;;;22.04;64.73;99035.53;2067377;28;20053;-49
2022/10/25 04:18:53;;;;;;;6.90;5.07;;;;;;;22.03;64.77;99042.78;2068515;28;20098;-45
2022/10/25 04:19:54;;;;;;;8.25;4.82;;;;;;;22.02;64.83;99032.22;2067791;28;20768;-48
2022/10/25 04:20:57;;;;;;;6.63;4.82;;;;;;;22.03;64.69;99034.66;2066055;28;20415;-49
2022/10/25 04:22:01;;;;;;;4.53;3.92;;;;;;;22.03;64.81;99036.56;2068689;28;20053;-49
2022/10/25 04:23:02;;;;;;;5.93;4.75;;;;;;;22.02;64.82;99035.72;2069730;28;20761;-49
2022/10/25 04:24:04;;;;;;;4.20;3.60;;;;;;;22.03;64.67;99037.38;2069635;28;20078;-51
2022/10/25 04:25:06;;;;;;;4.75;4.10;;;;;;;22.02;64.69;99035.72;2067668;28;20060;-48
2022/10/25 04:26:08;;;;;;;5.80;4.65;;;;;;;22.02;64.93;99034.91;2066760;28;20080;-47
2022/10/25 04:27:09;;;;;;;6.20;4.90;;;;;;;22.02;64.71;99040.31;2067362;28;20057;-51
2022/10/25 04:28:10;;;;;;;6.15;4.75;;;;;;;22.03;64.83;99040.06;2067355;28;20054;-49
2022/10/25 04:29:11;;;;;;;5.88;4.50;;;;;;;22.02;64.62;99045.72;2067462;28;20066;-49
2022/10/25 04:30:13;;;;;;;6.88;5.30;;;;;;;22.00;64.71;99045.91;2069556;28;20053;-49
2022/10/25 04:31:14;;;;;;;5.28;4.18;;;;;;;22.01;64.72;99050.28;2065699;28;20503;-49
2022/10/25 04:32:16;;;;;;;5.35;4.82;;;;;;;22.01;64.93;99047.59;2068400;28;20048;-48
2022/10/25 04:33:17;;;;;;;5.30;4.13;;;;;;;22.01;64.78;99041.38;2067260;28;20940;-49
2022/10/25 04:34:19;;;;;;;7.25;4.25;;;;;;;22.01;64.64;99042.19;2068971;28;20073;-48
2022/10/25 04:35:20;;;;;;;6.10;4.85;;;;;;;22.01;64.87;99046.75;2070028;28;20056;-50
2022/10/25 04:36:22;;;;;;;6.50;4.70;;;;;;;22.01;64.71;99044.06;2067638;28;20049;-48
2022/10/25 04:37:24;;;;;;;5.05;4.10;;;;;;;22.01;64.77;99041.38;2068744;28;20057;-49
2022/10/25 04:38:26;;;;;;;5.90;4.82;;;;;;;22.02;64.70;99043.84;2068400;28;20053;-51
2022/10/25 04:39:27;;;;;;;4.88;4.20;;;;;;;22.00;64.79;99045.91;2069930;28;20053;-51
2022/10/25 04:40:29;;;;;;;6.50;5.05;;;;;;;22.01;64.67;99044.06;2067706;28;20050;-50
2022/10/25 04:41:30;;;;;;;6.20;4.43;;;;;;;22.01;64.72;99039.47;2069139;28;20098;-47
2022/10/25 04:42:33;;;;;;;5.88;5.30;;;;;;;22.02;64.68;99040.31;2066582;28;20405;-48
2022/10/25 04:43:34;;;;;;;7.13;4.30;;;;;;;22.01;64.55;99044.88;2067419;28;20136;-51
2022/10/25 04:44:36;;;;;;;5.32;4.53;;;;;;;22.00;64.76;99040.50;2069340;28;20057;-47
2022/10/25 04:45:37;;;;;;;5.82;4.50;;;;;;;22.00;64.87;99045.91;2068693;28;20638;-49
2022/10/25 04:46:38;;;;;;;7.32;4.95;;;;;;;22.01;64.59;99042.19;2066022;28;20124;-48
2022/10/25 04:47:40;;;;;;;8.68;5.28;;;;;;;22.02;64.63;99045.72;2067306;28;20053;-51
2022/10/25 04:48:42;;;;;;;6.07;4.70;;;;;;;21.99;64.92;99044.25;2067298;28;20056;-51
2022/10/25 04:49:43;;;;;;;6.53;4.53;;;;;;;22.00;64.63;99035.09;2067443;28;20057;-52
2022/10/25 04:50:44;;;;;;;5.68;4.88;;;;;;;22.00;64.79;99040.50;2068068;28;20146;-47
2022/10/25 04:51:46;;;;;;;7.57;4.20;;;;;;;22.01;64.87;99044.06;2066615;28;20900;-47
2022/10/25 04:52:48;;;;;;;14.60;4.85;;;;;;;22.01;64.76;99031.38;2067151;28;20053;-47
2022/10/25 04:53:50;;;;;;;4.43;3.80;;;;;;;22.01;64.71;99039.47;2066478;28;20046;-49
2022/10/25 04:54:51;;;;;;;6.22;4.45;;;;;;;22.02;64.60;99034.91;2063248;28;20057;-52
2022/10/25 04:55:56;;;;;;;7.10;5.03;;;;;;;22.01;64.72;99034.09;2064516;28;20137;-52
2022/10/25 04:56:58;;;;;;;4.38;3.47;;;;;;;22.00;64.92;99034.28;2066801;28;20499;-47
2022/10/25 04:58:00;;;;;;;5.72;4.65;;;;;;;22.00;64.76;99032.41;2067171;28;20555;-52
2022/10/25 04:59:00;;;;;;;6.53;4.40;;;;;;;22.00;64.75;99040.50;2066809;28;20054;-49
2022/10/25 05:00:02;;;;;;;;;;;;;;;21.88;65.05;99036.84;2066780;28;20198;-54